createdAt,value
2022-10-20T00:01:16.805Z,15.07
2022-10-20T00:03:44.453Z,8.13
2022-10-20T00:06:14.214Z,9.03
2022-10-20T00:08:42.652Z,7.10
2022-10-20T00:11:11.136Z,9.10
2022-10-20T00:13:39.090Z,17.40
2022-10-20T00:16:06.354Z,9.53
2022-10-20T00:18:33.089Z,10.20
2022-10-20T00:21:00.026Z,9.73
2022-10-20T00:23:27.022Z,10.23
2022-10-20T00:26:26.681Z,10.10
2022-10-20T00:28:54.095Z,7.67
2022-10-20T00:31:22.769Z,9.53
2022-10-20T00:33:49.927Z,7.53
2022-10-20T00:36:19.476Z,8.20
2022-10-20T00:38:46.667Z,10.77
2022-10-20T00:41:18.838Z,7.90
2022-10-20T00:43:55.733Z,10.10
2022-10-20T00:46:41.191Z,9.43
2022-10-20T00:49:17.971Z,6.80
2022-10-20T00:51:44.911Z,8.93
2022-10-20T00:54:17.822Z,7.47
2022-10-20T00:56:47.169Z,10.47
2022-10-20T00:59:17.579Z,7.53
2022-10-20T01:01:45.599Z,9.33
2022-10-20T01:04:12.876Z,9.40
2022-10-20T01:06:39.724Z,9.37
2022-10-20T01:09:07.288Z,8.90
2022-10-20T01:11:52.413Z,7.90
2022-10-20T01:14:44.798Z,7.37
2022-10-20T01:17:17.580Z,8.17
2022-10-20T01:20:06.006Z,7.30
2022-10-20T01:22:47.051Z,7.10
2022-10-20T01:25:38.217Z,7.30
2022-10-20T01:28:17.490Z,7.53
2022-10-20T01:30:53.547Z,7.97
2022-10-20T01:33:55.969Z,11.07
2022-10-20T01:36:56.361Z,9.70
2022-10-20T01:39:40.280Z,14.27
2022-10-20T01:42:18.046Z,14.10
2022-10-20T01:44:46.814Z,11.93
2022-10-20T01:47:16.018Z,8.60
2022-10-20T01:49:45.120Z,8.10
2022-10-20T01:52:12.285Z,7.20
2022-10-20T01:54:38.996Z,10.93
2022-10-20T01:57:15.873Z,8.03
2022-10-20T02:00:05.515Z,11.23
2022-10-20T02:02:36.822Z,6.87
2022-10-20T02:05:03.895Z,8.37
2022-10-20T02:07:33.058Z,7.83
2022-10-20T02:10:18.279Z,11.30
2022-10-20T02:12:49.120Z,11.33
2022-10-20T02:15:20.846Z,8.30
2022-10-20T02:17:51.194Z,8.60
2022-10-20T02:20:18.034Z,10.47
2022-10-20T02:22:45.693Z,7.13
2022-10-20T02:25:13.715Z,7.30
2022-10-20T02:27:46.280Z,7.97
2022-10-20T02:30:17.240Z,7.33
2022-10-20T02:32:49.386Z,8.10
2022-10-20T02:35:30.744Z,13.07
2022-10-20T02:37:58.216Z,6.37
2022-10-20T02:40:25.441Z,9.47
2022-10-20T02:42:52.611Z,11.20
2022-10-20T02:45:19.988Z,7.60
2022-10-20T02:47:46.744Z,7.37
2022-10-20T02:50:13.501Z,10.07
2022-10-20T02:52:40.770Z,8.10
2022-10-20T02:55:07.965Z,9.80
2022-10-20T02:57:35.022Z,11.00
2022-10-20T03:00:01.953Z,10.50
2022-10-20T03:02:28.612Z,6.80
2022-10-20T03:04:55.342Z,7.10
2022-10-20T03:07:21.993Z,6.57
2022-10-20T03:09:49.013Z,9.37
2022-10-20T03:12:15.842Z,6.83
2022-10-20T03:14:42.928Z,6.43
2022-10-20T03:17:10.155Z,6.63
2022-10-20T03:19:36.995Z,9.43
2022-10-20T03:22:03.792Z,6.80
2022-10-20T03:24:30.556Z,6.40
2022-10-20T03:26:57.364Z,6.63
2022-10-20T03:29:24.045Z,9.30
2022-10-20T03:31:50.742Z,11.40
2022-10-20T03:34:17.457Z,10.30
2022-10-20T03:36:44.228Z,6.57
2022-10-20T03:39:11.063Z,5.87
2022-10-20T03:41:37.903Z,5.87
2022-10-20T03:44:04.679Z,8.10
2022-10-20T03:46:31.362Z,6.70
2022-10-20T03:48:58.161Z,6.50
2022-10-20T03:51:24.854Z,6.33
2022-10-20T03:53:51.515Z,7.73
2022-10-20T03:56:19.950Z,7.80
2022-10-20T03:58:47.439Z,5.73
2022-10-20T04:01:20.943Z,6.00
2022-10-20T04:03:47.949Z,5.63
2022-10-20T04:06:15.389Z,6.20
2022-10-20T04:08:42.187Z,9.20
2022-10-20T04:11:09.091Z,5.43
2022-10-20T04:13:35.852Z,6.70
2022-10-20T04:16:02.864Z,7.03
2022-10-20T04:18:29.509Z,5.80
2022-10-20T04:20:56.294Z,5.00
2022-10-20T04:23:23.060Z,5.27
2022-10-20T04:25:49.900Z,5.63
2022-10-20T04:28:18.602Z,7.47
2022-10-20T04:30:46.319Z,5.60
2022-10-20T04:33:13.309Z,5.70
2022-10-20T04:35:40.700Z,5.30
2022-10-20T04:38:07.841Z,5.70
2022-10-20T04:40:34.674Z,5.97
2022-10-20T04:43:01.678Z,5.20
2022-10-20T04:45:28.715Z,5.57
2022-10-20T04:47:55.436Z,11.63
2022-10-20T04:50:22.182Z,5.67
2022-10-20T04:52:48.886Z,6.47
2022-10-20T04:55:15.613Z,5.53
2022-10-20T04:57:42.351Z,5.70
2022-10-20T05:00:09.603Z,6.27
2022-10-20T05:02:36.330Z,4.77
2022-10-20T05:05:04.930Z,4.97
2022-10-20T05:07:31.710Z,6.23
2022-10-20T05:09:58.578Z,5.77
2022-10-20T05:12:25.467Z,7.17
2022-10-20T05:14:52.181Z,11.33
2022-10-20T05:17:18.979Z,4.77
2022-10-20T05:19:45.943Z,8.33
2022-10-20T05:22:12.795Z,10.03
2022-10-20T05:24:39.497Z,5.47
2022-10-20T05:27:06.172Z,8.07
2022-10-20T05:29:32.819Z,8.67
2022-10-20T05:31:59.588Z,9.70
2022-10-20T05:34:26.409Z,5.23
2022-10-20T05:36:54.365Z,5.10
2022-10-20T05:39:21.228Z,5.30
2022-10-20T05:41:48.038Z,5.30
2022-10-20T05:44:14.827Z,6.10
2022-10-20T05:46:42.584Z,6.17
2022-10-20T05:49:15.351Z,5.80
2022-10-20T05:51:42.298Z,6.50
2022-10-20T05:54:11.770Z,5.17
2022-10-20T05:56:38.895Z,8.20
2022-10-20T05:59:05.728Z,6.17
2022-10-20T06:01:47.971Z,32.47
2022-10-20T06:04:17.714Z,8.37
2022-10-20T06:06:44.478Z,9.33
2022-10-20T06:09:12.107Z,8.83
2022-10-20T06:11:39.811Z,7.53
2022-10-20T06:14:07.971Z,8.20
2022-10-20T06:16:34.930Z,11.00
2022-10-20T06:19:02.630Z,11.20
2022-10-20T06:21:32.240Z,7.37
2022-10-20T06:24:00.025Z,5.57
2022-10-20T06:26:37.750Z,5.10
2022-10-20T06:29:11.399Z,6.63
2022-10-20T06:31:46.513Z,16.90
2022-10-20T06:34:21.405Z,6.00
2022-10-20T06:36:48.490Z,6.13
2022-10-20T06:39:18.357Z,6.37
2022-10-20T06:41:52.968Z,6.60
2022-10-20T06:44:21.183Z,5.70
2022-10-20T06:46:47.945Z,6.77
2022-10-20T06:49:14.931Z,8.13
2022-10-20T06:51:41.761Z,8.73
2022-10-20T06:54:09.391Z,9.40
2022-10-20T06:56:37.138Z,6.47
2022-10-20T06:59:07.046Z,6.47
2022-10-20T07:01:36.216Z,6.73
2022-10-20T07:04:07.338Z,7.77
2022-10-20T07:06:42.754Z,6.30
2022-10-20T07:09:13.999Z,8.50
2022-10-20T07:11:41.881Z,10.47
2022-10-20T07:14:10.687Z,10.93
2022-10-20T07:16:37.372Z,9.63
2022-10-20T07:19:04.705Z,6.87
2022-10-20T07:21:35.740Z,6.50
2022-10-20T07:24:05.870Z,7.30
2022-10-20T07:26:36.088Z,8.70
2022-10-20T07:29:03.845Z,8.50
2022-10-20T07:31:32.039Z,7.83
2022-10-20T07:34:06.770Z,6.40
2022-10-20T07:36:42.794Z,7.17
2022-10-20T07:39:11.667Z,6.93
2022-10-20T07:41:39.663Z,6.50
2022-10-20T07:44:07.531Z,6.83
2022-10-20T07:46:34.976Z,7.63
2022-10-20T07:49:42.914Z,7.37
2022-10-20T07:51:48.484Z,7.17
2022-10-20T07:54:15.206Z,7.83
2022-10-20T07:56:43.173Z,7.70
2022-10-20T07:59:11.207Z,11.73
2022-10-20T08:01:38.530Z,9.40
2022-10-20T08:04:05.530Z,7.17
2022-10-20T08:06:32.410Z,12.30
2022-10-20T08:09:00.181Z,8.03
2022-10-20T08:11:27.385Z,8.50
2022-10-20T08:13:54.063Z,15.07
2022-10-20T08:16:32.010Z,7.30
2022-10-20T08:18:59.939Z,8.17
2022-10-20T08:21:26.689Z,9.47
2022-10-20T08:23:53.528Z,8.67
2022-10-20T08:26:22.737Z,6.60
2022-10-20T08:28:51.964Z,7.63
2022-10-20T08:31:18.873Z,7.90
2022-10-20T08:33:50.061Z,7.87
2022-10-20T08:36:30.164Z,6.50
2022-10-20T08:39:03.447Z,7.17
2022-10-20T08:42:02.754Z,6.93
2022-10-20T08:44:28.552Z,7.10
2022-10-20T08:46:55.527Z,9.70
2022-10-20T08:49:26.366Z,7.23
2022-10-20T08:51:53.554Z,7.80
2022-10-20T08:54:20.395Z,7.07
2022-10-20T08:56:47.713Z,8.00
2022-10-20T08:59:29.730Z,7.90
2022-10-20T09:01:57.791Z,7.90
2022-10-20T09:04:34.673Z,8.10
2022-10-20T09:07:05.742Z,12.63
2022-10-20T09:09:33.772Z,8.40
2022-10-20T09:12:06.418Z,13.37
2022-10-20T09:14:36.185Z,7.23
2022-10-20T09:17:04.611Z,9.33
2022-10-20T09:19:32.569Z,7.07
2022-10-20T09:22:05.528Z,10.38
2022-10-20T09:24:34.902Z,9.03
2022-10-20T09:27:21.329Z,8.00
2022-10-20T09:29:48.071Z,7.57
2022-10-20T09:32:51.167Z,11.13
2022-10-20T09:35:19.495Z,6.93
2022-10-20T09:37:52.998Z,9.53
2022-10-20T09:40:20.581Z,8.10
2022-10-20T09:42:52.641Z,7.07
2022-10-20T09:45:22.181Z,8.47
2022-10-20T09:47:56.247Z,7.97
2022-10-20T09:50:36.909Z,7.73
2022-10-20T09:53:07.352Z,9.20
2022-10-20T09:55:37.721Z,9.73
2022-10-20T09:58:05.790Z,8.90
2022-10-20T10:00:37.623Z,8.07
2022-10-20T10:03:22.119Z,9.70
2022-10-20T10:05:55.847Z,8.43
2022-10-20T10:08:25.511Z,9.97
2022-10-20T10:11:14.049Z,10.90
2022-10-20T10:13:44.689Z,15.90
2022-10-20T10:16:15.315Z,11.60
2022-10-20T10:18:48.501Z,11.73
2022-10-20T10:21:17.502Z,10.37
2022-10-20T10:23:56.041Z,10.60
2022-10-20T10:26:39.658Z,9.93
2022-10-20T10:29:20.609Z,11.13
2022-10-20T10:31:55.786Z,9.50
2022-10-20T10:34:31.984Z,12.23
2022-10-20T10:36:59.249Z,13.30
2022-10-20T10:39:26.140Z,9.77
2022-10-20T10:42:03.251Z,11.83
2022-10-20T10:44:46.702Z,11.83
2022-10-20T10:47:22.687Z,11.10
2022-10-20T10:50:12.487Z,12.77
2022-10-20T10:52:45.766Z,12.13
2022-10-20T10:55:47.109Z,10.73
2022-10-20T10:58:39.434Z,15.50
2022-10-20T11:01:06.505Z,15.47
2022-10-20T11:03:54.920Z,10.97
2022-10-20T11:06:32.551Z,13.27
2022-10-20T11:09:04.980Z,10.80
2022-10-20T11:11:49.713Z,18.53
2022-10-20T11:14:55.558Z,12.97
2022-10-20T11:17:25.194Z,22.03
2022-10-20T11:20:24.317Z,12.53
2022-10-20T11:23:09.175Z,18.10
2022-10-20T11:25:44.638Z,13.90
2022-10-20T11:28:33.373Z,12.60
2022-10-20T11:31:00.884Z,12.07
2022-10-20T11:33:42.167Z,12.70
2022-10-20T11:36:22.106Z,12.03
2022-10-20T11:38:52.460Z,13.60
2022-10-20T11:41:38.070Z,14.10
2022-10-20T11:44:39.987Z,16.87
2022-10-20T11:47:11.017Z,13.93
2022-10-20T11:49:40.434Z,13.83
2022-10-20T11:52:21.948Z,18.83
2022-10-20T11:55:18.631Z,16.33
2022-10-20T11:58:22.792Z,18.27
2022-10-20T12:01:07.005Z,17.67
2022-10-20T12:03:49.990Z,18.37
2022-10-20T12:06:49.553Z,16.00
2022-10-20T12:09:43.109Z,15.87
2022-10-20T12:12:32.654Z,16.17
2022-10-20T12:15:19.712Z,16.83
2022-10-20T12:17:47.650Z,18.33
2022-10-20T12:20:20.473Z,15.20
2022-10-20T12:22:50.561Z,15.63
2022-10-20T12:25:24.270Z,17.07
2022-10-20T12:28:24.882Z,18.23
2022-10-20T12:31:00.777Z,15.80
2022-10-20T12:33:41.891Z,18.30
2022-10-20T12:36:17.714Z,16.93
2022-10-20T12:39:08.285Z,19.97
2022-10-20T12:41:39.514Z,25.10
2022-10-20T12:44:14.359Z,16.30
2022-10-20T12:46:51.549Z,16.90
2022-10-20T12:49:51.836Z,16.03
2022-10-20T12:52:23.554Z,15.80
2022-10-20T12:55:25.801Z,15.77
2022-10-20T12:58:18.771Z,16.37
2022-10-20T13:00:48.303Z,18.40
2022-10-20T13:03:39.713Z,15.20
2022-10-20T13:06:27.562Z,14.73
2022-10-20T13:09:03.705Z,15.27
2022-10-20T13:11:42.615Z,14.50
2022-10-20T13:14:12.409Z,14.97
2022-10-20T13:17:07.387Z,15.27
2022-10-20T13:19:48.804Z,20.33
2022-10-20T13:22:33.149Z,21.97
2022-10-20T13:25:02.926Z,14.10
2022-10-20T13:27:29.960Z,14.93
2022-10-20T13:29:57.017Z,22.67
2022-10-20T13:33:33.198Z,17.40
2022-10-20T13:36:08.224Z,16.80
2022-10-20T13:38:58.572Z,15.80
2022-10-20T13:41:34.097Z,14.70
2022-10-20T13:44:32.864Z,15.53
2022-10-20T13:47:06.202Z,15.13
2022-10-20T13:49:52.534Z,16.07
2022-10-20T13:52:21.471Z,15.53
2022-10-20T13:54:50.918Z,15.33
2022-10-20T13:57:23.746Z,18.23
2022-10-20T14:00:02.340Z,14.60
2022-10-20T14:02:32.317Z,13.67
2022-10-20T14:05:13.661Z,14.47
2022-10-20T14:07:45.012Z,13.67
2022-10-20T14:10:28.455Z,14.90
2022-10-20T14:12:56.365Z,17.63
2022-10-20T14:15:49.538Z,13.50
2022-10-20T14:18:32.627Z,12.60
2022-10-20T14:21:21.999Z,12.70
2022-10-20T14:23:50.808Z,13.27
2022-10-20T14:26:20.790Z,13.90
2022-10-20T14:28:49.861Z,14.13
2022-10-20T14:31:20.294Z,16.60
2022-10-20T14:33:48.368Z,17.00
2022-10-20T14:36:30.810Z,16.00
2022-10-20T14:39:01.049Z,16.17
2022-10-20T14:41:35.579Z,13.97
2022-10-20T14:44:16.256Z,15.37
2022-10-20T14:46:50.347Z,15.73
2022-10-20T14:49:27.016Z,14.93
2022-10-20T14:52:01.371Z,17.73
2022-10-20T14:54:30.969Z,16.93
2022-10-20T14:56:59.012Z,16.57
2022-10-20T14:59:32.859Z,19.17
2022-10-20T15:02:12.532Z,16.53
2022-10-20T15:04:43.341Z,21.30
2022-10-20T15:07:23.015Z,20.00
2022-10-20T15:09:52.939Z,17.50
2022-10-20T15:12:25.753Z,20.33
2022-10-20T15:15:02.242Z,16.97
2022-10-20T15:17:35.280Z,19.33
2022-10-20T15:20:30.295Z,16.50
2022-10-20T15:22:58.542Z,17.73
2022-10-20T15:25:26.959Z,22.00
2022-10-20T15:27:56.051Z,22.53
2022-10-20T15:30:24.664Z,18.33
2022-10-20T15:32:52.445Z,17.83
2022-10-20T15:35:22.333Z,19.00
2022-10-20T15:37:53.534Z,19.93
2022-10-20T15:40:21.611Z,17.03
2022-10-20T15:42:49.326Z,22.40
2022-10-20T15:45:22.117Z,19.50
2022-10-20T15:47:48.935Z,17.77
2022-10-20T15:50:16.159Z,18.43
2022-10-20T15:52:42.912Z,26.13
2022-10-20T15:55:22.674Z,18.30
2022-10-20T15:57:51.091Z,25.50
2022-10-20T16:00:19.137Z,20.57
2022-10-20T16:02:46.338Z,19.00
2022-10-20T16:05:13.467Z,20.43
2022-10-20T16:07:40.269Z,23.10
2022-10-20T16:10:08.321Z,19.80
2022-10-20T16:12:36.144Z,20.40
2022-10-20T16:15:04.383Z,20.00
2022-10-20T16:17:31.033Z,18.63
2022-10-20T16:19:57.934Z,23.37
2022-10-20T16:22:26.418Z,21.53
2022-10-20T16:24:53.270Z,21.20
2022-10-20T16:27:19.942Z,23.93
2022-10-20T16:29:49.085Z,23.57
2022-10-20T16:32:16.736Z,27.13
2022-10-20T16:34:43.466Z,20.37
2022-10-20T16:37:10.252Z,26.90
2022-10-20T16:39:36.998Z,24.37
2022-10-20T16:42:03.855Z,22.03
2022-10-20T16:44:30.860Z,25.37
2022-10-20T16:46:57.981Z,22.40
2022-10-20T16:49:24.826Z,23.33
2022-10-20T16:51:52.178Z,25.33
2022-10-20T16:54:19.203Z,24.27
2022-10-20T16:56:46.143Z,27.17
2022-10-20T16:59:12.837Z,21.73
2022-10-20T17:01:39.661Z,25.50
2022-10-20T17:04:06.749Z,26.30
2022-10-20T17:06:33.757Z,23.63
2022-10-20T17:09:00.684Z,23.47
2022-10-20T17:11:29.731Z,25.80
2022-10-20T17:13:57.379Z,23.60
2022-10-20T17:16:32.258Z,21.47
2022-10-20T17:19:02.030Z,24.70
2022-10-20T17:21:31.202Z,24.53
2022-10-20T17:23:58.521Z,21.53
2022-10-20T17:26:27.436Z,23.13
2022-10-20T17:28:55.254Z,20.83
2022-10-20T17:31:22.649Z,22.43
2022-10-20T17:33:49.421Z,25.93
2022-10-20T17:36:16.308Z,21.97
2022-10-20T17:38:43.475Z,21.73
2022-10-20T17:41:15.699Z,21.73
2022-10-20T17:43:42.545Z,22.77
2022-10-20T17:46:14.785Z,24.20
2022-10-20T17:48:41.791Z,24.07
2022-10-20T17:51:12.207Z,20.90
2022-10-20T17:53:41.749Z,27.50
2022-10-20T17:56:15.030Z,23.67
2022-10-20T17:58:43.130Z,24.13
2022-10-20T18:01:30.995Z,26.27
2022-10-20T18:04:00.433Z,20.70
2022-10-20T18:06:33.813Z,31.63
2022-10-20T18:09:05.264Z,20.40
2022-10-20T18:11:34.718Z,23.20
2022-10-20T18:14:02.200Z,20.57
2022-10-20T18:16:32.825Z,28.07
2022-10-20T18:19:01.428Z,21.90
2022-10-20T18:21:30.109Z,21.87
2022-10-20T18:23:59.719Z,20.50
2022-10-20T18:26:26.553Z,20.83
2022-10-20T18:28:53.905Z,18.60
2022-10-20T18:31:24.789Z,25.73
2022-10-20T18:33:58.174Z,23.40
2022-10-20T18:36:27.330Z,21.00
2022-10-20T18:38:55.043Z,20.60
2022-10-20T18:41:25.088Z,23.27
2022-10-20T18:43:59.665Z,24.30
2022-10-20T18:46:28.536Z,21.30
2022-10-20T18:48:56.449Z,22.10
2022-10-20T18:51:23.384Z,22.60
2022-10-20T18:53:53.825Z,20.30
2022-10-20T18:56:22.766Z,21.87
2022-10-20T18:58:55.563Z,20.73
2022-10-20T19:01:25.227Z,25.20
2022-10-20T19:03:56.634Z,21.60
2022-10-20T19:06:24.859Z,23.67
2022-10-20T19:08:57.565Z,21.67
2022-10-20T19:11:26.949Z,25.20
2022-10-20T19:13:54.661Z,21.20
2022-10-20T19:16:24.865Z,24.40
2022-10-20T19:18:54.223Z,21.37
2022-10-20T19:21:21.942Z,22.10
2022-10-20T19:23:55.858Z,26.10
2022-10-20T19:26:26.093Z,23.73
2022-10-20T19:29:00.089Z,21.00
2022-10-20T19:31:40.098Z,23.70
2022-10-20T19:34:18.378Z,23.57
2022-10-20T19:36:48.330Z,22.53
2022-10-20T19:41:55.739Z,24.90
2022-10-20T19:44:22.734Z,30.87
2022-10-20T19:46:51.548Z,21.40
2022-10-20T19:49:20.984Z,36.20
2022-10-20T19:51:48.066Z,22.30
2022-10-20T19:54:15.188Z,23.50
2022-10-20T19:56:41.986Z,27.00
2022-10-20T19:59:09.410Z,21.50
2022-10-20T20:01:36.280Z,22.10
2022-10-20T20:04:03.925Z,22.10
2022-10-20T20:06:30.938Z,26.70
2022-10-20T20:09:00.241Z,23.60
2022-10-20T20:11:30.602Z,26.67
2022-10-20T20:14:06.152Z,24.47
2022-10-20T20:16:32.938Z,22.00
2022-10-20T20:18:59.757Z,24.30
2022-10-20T20:21:26.859Z,23.40
2022-10-20T20:24:01.766Z,28.30
2022-10-20T20:26:30.320Z,27.67
2022-10-20T20:28:57.505Z,23.03
2022-10-20T20:31:24.841Z,26.53
2022-10-20T20:33:52.427Z,23.03
2022-10-20T20:36:19.429Z,25.50
2022-10-20T20:38:46.305Z,23.43
2022-10-20T20:41:15.830Z,25.27
2022-10-20T20:43:45.092Z,27.20
2022-10-20T20:46:14.395Z,28.50
2022-10-20T20:48:41.493Z,30.03
2022-10-20T20:51:08.865Z,26.33
2022-10-20T20:53:36.710Z,24.37
2022-10-20T20:56:14.945Z,25.30
2022-10-20T20:58:45.056Z,26.50
2022-10-20T21:01:15.883Z,26.50
2022-10-20T21:03:43.415Z,25.33
2022-10-20T21:06:22.979Z,26.50
2022-10-20T21:08:56.315Z,24.70
2022-10-20T21:11:25.390Z,24.57
2022-10-20T21:13:54.475Z,23.40
2022-10-20T21:16:25.770Z,25.33
2022-10-20T21:18:55.318Z,31.90
2022-10-20T21:21:27.501Z,27.70
2022-10-20T21:23:54.690Z,25.73
2022-10-20T21:26:22.356Z,26.80
2022-10-20T21:28:50.931Z,25.90
2022-10-20T21:31:20.178Z,26.60
2022-10-20T21:33:50.508Z,30.97
2022-10-20T21:36:19.453Z,27.53
2022-10-20T21:38:46.835Z,24.20
2022-10-20T21:41:16.782Z,26.37
2022-10-20T21:43:46.500Z,34.50
2022-10-20T21:46:25.048Z,33.60
2022-10-20T21:48:54.198Z,32.13
2022-10-20T21:51:26.572Z,26.40
2022-10-20T21:54:04.181Z,23.20
2022-10-20T21:56:34.123Z,27.57
2022-10-20T21:59:00.795Z,34.40
2022-10-20T22:01:27.559Z,27.20
2022-10-20T22:03:54.927Z,24.77
2022-10-20T22:06:24.101Z,26.50
2022-10-20T22:08:53.495Z,26.80
2022-10-20T22:11:24.707Z,27.90
2022-10-20T22:13:51.674Z,26.70
2022-10-20T22:16:22.224Z,22.43
2022-10-20T22:18:49.047Z,29.90
2022-10-20T22:21:18.154Z,26.73
2022-10-20T22:23:45.408Z,27.07
2022-10-20T22:26:12.571Z,27.10
2022-10-20T22:28:40.065Z,26.20
2022-10-20T22:31:07.465Z,26.53
2022-10-20T22:33:34.633Z,27.83
2022-10-20T22:36:01.814Z,26.43
2022-10-20T22:38:28.491Z,26.37
2022-10-20T22:41:03.061Z,30.10
2022-10-20T22:43:31.250Z,25.03
2022-10-20T22:45:58.267Z,23.50
2022-10-20T22:48:25.506Z,26.57
2022-10-20T22:50:52.319Z,22.33
2022-10-20T22:53:19.374Z,21.53
2022-10-20T22:55:46.376Z,24.23
2022-10-20T22:58:13.362Z,20.17
2022-10-20T23:00:41.174Z,21.70
2022-10-20T23:03:07.996Z,29.40
2022-10-20T23:05:35.061Z,26.20
2022-10-20T23:08:01.799Z,24.93
2022-10-20T23:10:29.224Z,20.40
2022-10-20T23:12:55.883Z,19.30
2022-10-20T23:15:23.282Z,26.43
2022-10-20T23:17:49.993Z,22.20
2022-10-20T23:20:16.860Z,23.20
2022-10-20T23:22:43.609Z,26.13
2022-10-20T23:25:10.338Z,28.20
2022-10-20T23:27:37.347Z,23.87
2022-10-20T23:30:04.553Z,22.93
2022-10-20T23:32:31.267Z,20.00
2022-10-20T23:34:58.560Z,19.70
2022-10-20T23:37:25.317Z,23.67
2022-10-20T23:39:51.964Z,22.87
2022-10-20T23:42:18.686Z,20.87
2022-10-20T23:44:45.498Z,20.10
2022-10-20T23:47:12.375Z,22.00
2022-10-20T23:49:39.311Z,19.47
2022-10-20T23:52:06.089Z,22.10
2022-10-20T23:54:33.018Z,22.23
2022-10-20T23:56:59.949Z,19.97
2022-10-20T23:59:26.946Z,21.63
